Awans, Belgium
Current Conditions -  °F | °C
As of 8:20 AM on Friday 19 Dec 2014 (Local Time) from EBLG Reporting Station
Light Rain Light Rain  
Wind Chill: 50°   Ceiling: 1200
Heat Index: 50°   Visibility: 4mi
Dew Point: 48°   Wind: 24mph
Humidity: 94%   Direction: 220°SW
Pressure: 29.88"   Gusts: 37mph
Location:  50.67°N, 5.46°E
Report Text: EBLG 190720Z 22021G32KT 7000 -RA FEW008 BKN012 10/09 Q1012 TEMPO BKN005
Loading
Personal Weather Stations






























Interactive Weather Map New forecast layout! Learn more

10-Day Weather Forecast

Advertisements
Track Severe Weather on mobile